createdAt,value
2023-05-11T00:01:21.640Z,10.90
2023-05-11T00:03:48.480Z,11.30
2023-05-11T00:06:15.160Z,10.80
2023-05-11T00:08:41.726Z,10.90
2023-05-11T00:11:08.728Z,10.90
2023-05-11T00:13:35.582Z,10.90
2023-05-11T00:16:03.675Z,10.90
2023-05-11T00:18:30.621Z,12.20
2023-05-11T00:20:57.735Z,10.80
2023-05-11T00:23:24.489Z,10.80
2023-05-11T00:25:51.590Z,10.90
2023-05-11T00:28:18.327Z,10.90
2023-05-11T00:30:45.479Z,10.90
2023-05-11T00:33:12.156Z,10.90
2023-05-11T00:35:38.869Z,10.90
2023-05-11T00:38:05.532Z,11.00
2023-05-11T00:40:32.426Z,10.90
2023-05-11T00:42:59.369Z,12.60
2023-05-11T00:45:26.133Z,10.80
2023-05-11T00:47:52.847Z,10.70
2023-05-11T00:50:19.675Z,10.80
2023-05-11T00:52:47.040Z,10.80
2023-05-11T00:55:14.086Z,10.80
2023-05-11T00:57:40.830Z,10.80
2023-05-11T01:00:07.981Z,13.30
2023-05-11T01:02:35.337Z,10.80
2023-05-11T01:05:02.233Z,10.10
2023-05-11T01:07:38.828Z,10.90
2023-05-11T01:10:17.903Z,10.90
2023-05-11T01:12:48.215Z,11.00
2023-05-11T01:15:20.534Z,11.00
2023-05-11T01:17:58.274Z,11.00
2023-05-11T01:20:27.227Z,11.00
2023-05-11T01:22:59.909Z,11.00
2023-05-11T01:25:29.952Z,11.00
2023-05-11T01:28:15.547Z,11.00
2023-05-11T01:30:49.871Z,10.90
2023-05-11T01:33:18.682Z,10.90
2023-05-11T01:35:49.144Z,11.00
2023-05-11T01:38:19.258Z,11.00
2023-05-11T01:40:50.816Z,11.00
2023-05-11T01:43:21.069Z,11.00
2023-05-11T01:45:51.286Z,11.00
2023-05-11T01:48:19.945Z,11.00
2023-05-11T01:50:47.969Z,11.00
2023-05-11T01:53:15.680Z,11.00
2023-05-11T01:55:42.902Z,11.00
2023-05-11T01:58:10.701Z,11.00
2023-05-11T02:00:37.839Z,11.00
2023-05-11T02:03:05.802Z,11.00
2023-05-11T02:05:33.294Z,11.00
2023-05-11T02:08:01.242Z,11.00
2023-05-11T02:10:28.219Z,11.00
2023-05-11T02:12:55.638Z,11.00
2023-05-11T02:15:23.717Z,10.90
2023-05-11T02:17:51.127Z,10.90
2023-05-11T02:20:18.607Z,10.90
2023-05-11T02:22:45.645Z,10.90
2023-05-11T02:25:12.968Z,10.90
2023-05-11T02:27:39.805Z,10.90
2023-05-11T02:30:08.512Z,10.80
2023-05-11T02:32:36.211Z,10.80
2023-05-11T02:35:07.780Z,10.80
2023-05-11T02:37:35.339Z,10.80
2023-05-11T02:40:04.991Z,10.80
2023-05-11T02:42:35.239Z,10.70
2023-05-11T02:45:03.799Z,12.60
2023-05-11T02:47:32.408Z,10.70
2023-05-11T02:50:01.755Z,10.80
2023-05-11T02:52:29.315Z,10.80
2023-05-11T02:54:56.985Z,10.80
2023-05-11T02:57:24.219Z,10.70
2023-05-11T02:59:51.588Z,10.80
2023-05-11T03:02:18.435Z,11.00
2023-05-11T03:04:45.266Z,10.70
2023-05-11T03:07:12.067Z,10.70
2023-05-11T03:09:38.744Z,10.70
2023-05-11T03:12:06.706Z,10.70
2023-05-11T03:14:34.263Z,10.70
2023-05-11T03:17:01.808Z,10.70
2023-05-11T03:19:29.217Z,10.70
2023-05-11T03:21:58.109Z,10.70
2023-05-11T03:24:25.021Z,10.70
2023-05-11T03:26:52.477Z,11.70
2023-05-11T03:29:20.183Z,10.70
2023-05-11T03:31:50.346Z,10.70
2023-05-11T03:34:18.001Z,11.60
2023-05-11T03:36:46.211Z,10.70
2023-05-11T03:39:14.249Z,11.10
2023-05-11T03:41:41.665Z,10.80
2023-05-11T03:44:10.968Z,10.70
2023-05-11T03:46:40.047Z,10.80
2023-05-11T03:49:07.432Z,10.70
2023-05-11T03:51:35.191Z,11.50
2023-05-11T03:54:02.215Z,10.70
2023-05-11T03:56:29.234Z,11.50
2023-05-11T03:58:56.179Z,10.70
2023-05-11T04:01:23.035Z,10.70
2023-05-11T04:03:50.876Z,10.70
2023-05-11T04:06:18.293Z,10.70
2023-05-11T04:08:44.984Z,11.40
2023-05-11T04:11:11.926Z,10.80
2023-05-11T04:13:38.804Z,10.70
2023-05-11T04:16:05.798Z,10.80
2023-05-11T04:18:32.689Z,10.80
2023-05-11T04:20:59.323Z,10.80
2023-05-11T04:23:25.949Z,10.80
2023-05-11T04:25:53.497Z,10.80
2023-05-11T04:28:20.465Z,10.80
2023-05-11T04:30:51.896Z,11.80
2023-05-11T04:33:18.583Z,10.80
2023-05-11T04:35:45.682Z,10.80
2023-05-11T04:38:12.489Z,12.90
2023-05-11T04:40:39.346Z,11.00
2023-05-11T04:43:06.033Z,10.90
2023-05-11T04:45:32.633Z,10.90
2023-05-11T04:47:59.398Z,12.30
2023-05-11T04:50:25.967Z,10.90
2023-05-11T04:52:52.575Z,10.90
2023-05-11T04:55:19.174Z,13.70
2023-05-11T04:57:45.837Z,10.90
2023-05-11T05:00:13.290Z,10.90
2023-05-11T05:02:39.966Z,10.90
2023-05-11T05:05:07.017Z,14.30
2023-05-11T05:07:33.628Z,10.90
2023-05-11T05:10:00.775Z,11.10
2023-05-11T05:12:27.573Z,10.90
2023-05-11T05:14:54.373Z,11.50
2023-05-11T05:17:20.967Z,13.70
2023-05-11T05:19:47.600Z,13.50
2023-05-11T05:22:14.301Z,12.10
2023-05-11T05:24:41.027Z,11.10
2023-05-11T05:27:07.687Z,13.80
2023-05-11T05:29:34.317Z,14.10
2023-05-11T05:32:00.919Z,13.70
2023-05-11T05:34:27.577Z,11.00
2023-05-11T05:36:54.286Z,11.00
2023-05-11T05:39:21.064Z,15.00
2023-05-11T05:41:47.701Z,14.60
2023-05-11T05:44:14.604Z,13.30
2023-05-11T05:46:41.398Z,14.70
2023-05-11T05:49:08.108Z,11.10
2023-05-11T05:51:34.896Z,14.50
2023-05-11T05:54:01.469Z,11.00
2023-05-11T05:56:28.152Z,11.10
2023-05-11T05:58:55.733Z,11.20
2023-05-11T06:01:22.663Z,12.30
2023-05-11T06:03:52.390Z,11.20
2023-05-11T06:06:19.374Z,11.20
2023-05-11T06:08:46.025Z,14.10
2023-05-11T06:11:12.971Z,11.30
2023-05-11T06:13:39.841Z,11.40
2023-05-11T06:16:06.621Z,11.50
2023-05-11T06:18:33.262Z,11.40
2023-05-11T06:21:00.021Z,14.60
2023-05-11T06:23:26.790Z,14.70
2023-05-11T06:25:53.584Z,14.00
2023-05-11T06:28:22.948Z,11.70
2023-05-11T06:30:49.626Z,15.10
2023-05-11T06:33:16.291Z,14.00
2023-05-11T06:35:42.899Z,11.80
2023-05-11T06:38:09.541Z,11.80
2023-05-11T06:40:36.631Z,11.90
2023-05-11T06:43:03.495Z,12.50
2023-05-11T06:45:30.261Z,12.10
2023-05-11T06:47:57.145Z,12.10
2023-05-11T06:50:26.677Z,15.10
2023-05-11T06:52:54.494Z,15.50
2023-05-11T06:55:21.234Z,15.50
2023-05-11T06:57:48.208Z,12.30
2023-05-11T07:00:15.182Z,13.20
2023-05-11T07:02:41.957Z,12.30
2023-05-11T07:05:08.730Z,12.30
2023-05-11T07:07:35.446Z,12.30
2023-05-11T07:10:02.190Z,12.30
2023-05-11T07:12:29.041Z,12.30
2023-05-11T07:14:56.011Z,12.20
2023-05-11T07:17:23.028Z,12.20
2023-05-11T07:19:52.411Z,12.10
2023-05-11T07:22:19.112Z,15.00
2023-05-11T07:24:45.892Z,11.90
2023-05-11T07:27:12.992Z,12.00
2023-05-11T07:29:39.627Z,14.30
2023-05-11T07:32:06.276Z,11.90
2023-05-11T07:34:33.356Z,11.90
2023-05-11T07:37:00.572Z,11.90
2023-05-11T07:39:27.743Z,11.90
2023-05-11T07:41:54.592Z,11.80
2023-05-11T07:44:21.411Z,11.70
2023-05-11T07:46:48.427Z,11.70
2023-05-11T07:49:18.948Z,11.70
2023-05-11T07:51:52.983Z,11.70
2023-05-11T07:54:21.638Z,11.60
2023-05-11T07:56:48.666Z,13.40
2023-05-11T07:59:15.372Z,12.10
2023-05-11T08:01:42.151Z,13.30
2023-05-11T08:04:09.262Z,11.60
2023-05-11T08:06:35.998Z,11.60
2023-05-11T08:09:02.853Z,11.60
2023-05-11T08:11:29.578Z,11.70
2023-05-11T08:13:56.333Z,11.70
2023-05-11T08:16:23.130Z,11.60
2023-05-11T08:18:50.050Z,11.60
2023-05-11T08:21:17.850Z,11.60
2023-05-11T08:23:45.303Z,12.20
2023-05-11T08:26:12.032Z,14.20
2023-05-11T08:28:38.696Z,11.80
2023-05-11T08:31:06.243Z,11.80
2023-05-11T08:33:38.319Z,12.10
2023-05-11T08:36:06.429Z,11.80
2023-05-11T08:38:33.562Z,12.00
2023-05-11T08:41:01.506Z,11.90
2023-05-11T08:43:29.325Z,12.00
2023-05-11T08:45:57.441Z,12.10
2023-05-11T08:48:24.419Z,12.50
2023-05-11T08:50:51.166Z,12.10
2023-05-11T08:53:17.816Z,13.70
2023-05-11T08:55:47.106Z,12.10
2023-05-11T08:58:19.578Z,12.00
2023-05-11T09:00:47.258Z,12.10
2023-05-11T09:03:14.299Z,12.90
2023-05-11T09:05:41.708Z,12.00
2023-05-11T09:08:09.403Z,12.00
2023-05-11T09:10:36.856Z,12.00
2023-05-11T09:13:03.966Z,12.00
2023-05-11T09:15:37.028Z,12.00
2023-05-11T09:18:04.933Z,12.10
2023-05-11T09:20:32.725Z,12.00
2023-05-11T09:22:59.997Z,12.10
2023-05-11T09:25:28.973Z,12.10
2023-05-11T09:27:57.734Z,12.10
2023-05-11T09:30:24.476Z,12.10
2023-05-11T09:32:51.333Z,12.20
2023-05-11T09:35:22.496Z,14.90
2023-05-11T09:38:09.231Z,12.30
2023-05-11T09:40:39.957Z,12.30
2023-05-11T09:43:26.957Z,12.30
2023-05-11T09:45:55.003Z,12.40
2023-05-11T09:48:21.934Z,12.40
2023-05-11T09:50:49.408Z,12.40
2023-05-11T09:53:16.986Z,12.50
2023-05-11T09:55:53.897Z,13.70
2023-05-11T09:58:20.653Z,12.50
2023-05-11T10:00:54.008Z,13.80
2023-05-11T10:03:20.987Z,12.60
2023-05-11T10:05:58.304Z,12.60
2023-05-11T10:08:29.597Z,12.70
2023-05-11T10:10:56.992Z,12.70
2023-05-11T10:13:24.486Z,12.70
2023-05-11T10:15:52.623Z,16.10
2023-05-11T10:18:20.441Z,15.20
2023-05-11T10:20:47.470Z,14.70
2023-05-11T10:23:15.233Z,15.50
2023-05-11T10:25:42.332Z,13.80
2023-05-11T10:28:09.367Z,15.40
2023-05-11T10:30:37.386Z,16.40
2023-05-11T10:33:05.530Z,17.30
2023-05-11T10:35:32.837Z,12.80
2023-05-11T10:38:00.786Z,12.80
2023-05-11T10:40:27.555Z,15.10
2023-05-11T10:42:56.566Z,12.60
2023-05-11T10:45:42.022Z,12.40
2023-05-11T10:48:11.824Z,12.30
2023-05-11T10:51:02.124Z,12.10
2023-05-11T10:53:47.254Z,12.00
2023-05-11T10:56:13.951Z,12.00
2023-05-11T10:58:40.882Z,12.00
2023-05-11T11:01:26.892Z,15.40
2023-05-11T11:04:02.255Z,11.90
2023-05-11T11:06:29.780Z,11.80
2023-05-11T11:08:59.333Z,11.80
2023-05-11T11:11:51.426Z,12.10
2023-05-11T11:14:19.368Z,11.70
2023-05-11T11:17:05.265Z,11.90
2023-05-11T11:19:32.090Z,11.80
2023-05-11T11:22:02.211Z,11.80
2023-05-11T11:24:41.021Z,11.90
2023-05-11T11:27:08.973Z,11.90
2023-05-11T11:29:35.973Z,14.10
2023-05-11T11:32:23.502Z,12.30
2023-05-11T11:34:51.882Z,12.10
2023-05-11T11:37:19.476Z,13.90
2023-05-11T11:39:47.451Z,12.30
2023-05-11T11:42:33.725Z,12.40
2023-05-11T11:45:19.412Z,12.50
2023-05-11T11:48:05.914Z,12.60
2023-05-11T11:50:33.266Z,12.70
2023-05-11T11:53:00.137Z,12.70
2023-05-11T11:55:44.787Z,13.70
2023-05-11T11:58:11.614Z,13.00
2023-05-11T12:00:38.271Z,13.00
2023-05-11T12:03:05.805Z,16.10
2023-05-11T12:05:34.824Z,15.70
2023-05-11T12:08:05.838Z,13.10
2023-05-11T12:10:33.227Z,13.30
2023-05-11T12:13:00.787Z,13.30
2023-05-11T12:15:28.409Z,13.30
2023-05-11T12:17:55.946Z,15.50
2023-05-11T12:20:23.334Z,13.50
2023-05-11T12:22:50.538Z,14.70
2023-05-11T12:25:18.480Z,13.70
2023-05-11T12:27:58.620Z,15.20
2023-05-11T12:30:26.350Z,13.70
2023-05-11T12:35:27.641Z,15.70
2023-05-11T12:37:54.937Z,13.60
2023-05-11T12:40:21.682Z,13.60
2023-05-11T12:42:58.180Z,14.50
2023-05-11T12:45:26.587Z,14.90
2023-05-11T12:47:54.090Z,13.50
2023-05-11T12:50:21.427Z,15.40
2023-05-11T12:52:49.165Z,13.50
2023-05-11T12:55:26.195Z,13.50
2023-05-11T12:57:54.715Z,14.60
2023-05-11T13:00:22.033Z,15.70
2023-05-11T13:02:54.635Z,13.60
2023-05-11T13:05:25.387Z,13.70
2023-05-11T13:08:02.387Z,13.80
2023-05-11T13:10:29.345Z,13.80
2023-05-11T13:12:56.202Z,13.80
2023-05-11T13:15:23.618Z,16.30
2023-05-11T13:18:00.249Z,15.30
2023-05-11T13:20:29.669Z,13.90
2023-05-11T13:23:02.628Z,14.30
2023-05-11T13:25:29.304Z,14.00
2023-05-11T13:27:55.969Z,16.50
2023-05-11T13:30:22.631Z,16.60
2023-05-11T13:32:49.613Z,16.10
2023-05-11T13:35:16.803Z,16.10
2023-05-11T13:37:43.669Z,15.50
2023-05-11T13:40:10.685Z,14.10
2023-05-11T13:42:37.626Z,13.90
2023-05-11T13:45:04.625Z,14.10
2023-05-11T13:47:31.321Z,13.90
2023-05-11T13:50:00.106Z,16.10
2023-05-11T13:52:26.724Z,15.50
2023-05-11T13:54:53.410Z,16.90
2023-05-11T13:57:20.854Z,14.10
2023-05-11T13:59:47.542Z,17.00
2023-05-11T14:02:14.170Z,16.60
2023-05-11T14:04:41.617Z,16.90
2023-05-11T14:07:08.634Z,16.00
2023-05-11T14:09:37.119Z,14.50
2023-05-11T14:12:03.941Z,16.70
2023-05-11T14:14:30.821Z,14.50
2023-05-11T14:16:57.792Z,14.40
2023-05-11T14:19:24.715Z,16.50
2023-05-11T14:21:51.563Z,15.40
2023-05-11T14:24:18.275Z,16.60
2023-05-11T14:26:45.027Z,15.50
2023-05-11T14:29:11.852Z,16.10
2023-05-11T14:31:39.003Z,15.40
2023-05-11T14:34:06.179Z,16.90
2023-05-11T14:36:33.009Z,14.40
2023-05-11T14:38:59.653Z,15.20
2023-05-11T14:41:26.265Z,15.50
2023-05-11T14:43:53.244Z,16.00
2023-05-11T14:46:20.277Z,16.20
2023-05-11T14:48:47.289Z,14.70
2023-05-11T14:51:14.367Z,16.50
2023-05-11T14:53:41.101Z,15.40
2023-05-11T14:56:07.868Z,15.50
2023-05-11T14:58:34.569Z,15.90
2023-05-11T15:01:01.423Z,16.70
2023-05-11T15:03:28.280Z,15.70
2023-05-11T15:05:55.003Z,14.60
2023-05-11T15:08:29.705Z,15.30
2023-05-11T15:10:57.503Z,14.60
2023-05-11T15:13:24.457Z,14.60
2023-05-11T15:15:51.586Z,16.20
2023-05-11T15:18:18.842Z,17.80
2023-05-11T15:20:46.278Z,15.90
2023-05-11T15:23:17.182Z,15.80
2023-05-11T15:25:44.951Z,16.80
2023-05-11T15:28:17.102Z,14.90
2023-05-11T15:30:47.106Z,14.70
2023-05-11T15:33:23.272Z,14.70
2023-05-11T15:35:51.413Z,14.60
2023-05-11T15:38:20.583Z,14.70
2023-05-11T15:40:48.267Z,17.50
2023-05-11T15:43:18.491Z,14.50
2023-05-11T15:45:45.327Z,14.50
2023-05-11T15:48:13.304Z,14.80
2023-05-11T15:50:41.201Z,15.80
2023-05-11T15:53:09.060Z,14.60
2023-05-11T15:55:37.017Z,15.00
2023-05-11T15:58:06.983Z,14.70
2023-05-11T16:00:33.695Z,16.70
2023-05-11T16:03:00.505Z,15.40
2023-05-11T16:05:28.378Z,16.40
2023-05-11T16:07:55.064Z,14.30
2023-05-11T16:10:21.943Z,15.10
2023-05-11T16:12:48.759Z,14.20
2023-05-11T16:15:15.824Z,14.20
2023-05-11T16:17:42.654Z,15.90
2023-05-11T16:20:09.502Z,14.00
2023-05-11T16:22:37.292Z,14.00
2023-05-11T16:25:04.062Z,14.10
2023-05-11T16:27:30.827Z,14.10
2023-05-11T16:29:57.825Z,15.20
2023-05-11T16:32:26.005Z,16.40
2023-05-11T16:34:53.041Z,16.50
2023-05-11T16:37:19.600Z,14.40
2023-05-11T16:39:46.413Z,16.50
2023-05-11T16:42:13.630Z,16.60
2023-05-11T16:44:40.375Z,15.10
2023-05-11T16:47:07.016Z,14.60
2023-05-11T16:49:33.629Z,15.30
2023-05-11T16:52:00.864Z,16.60
2023-05-11T16:54:27.889Z,14.00
2023-05-11T16:56:54.512Z,14.00
2023-05-11T16:59:21.256Z,16.70
2023-05-11T17:01:47.989Z,15.60
2023-05-11T17:04:15.012Z,16.10
2023-05-11T17:06:41.728Z,16.50
2023-05-11T17:09:08.439Z,16.40
2023-05-11T17:11:35.131Z,15.70
2023-05-11T17:14:03.024Z,15.40
2023-05-11T17:16:29.830Z,15.30
2023-05-11T17:18:58.911Z,13.60
2023-05-11T17:21:26.120Z,15.80
2023-05-11T17:23:53.416Z,14.00
2023-05-11T17:26:20.206Z,14.80
2023-05-11T17:28:47.547Z,13.50
2023-05-11T17:31:15.416Z,15.60
2023-05-11T17:33:42.381Z,15.30
2023-05-11T17:36:09.622Z,13.30
2023-05-11T17:38:36.304Z,13.20
2023-05-11T17:41:06.228Z,13.60
2023-05-11T17:43:33.364Z,15.00
2023-05-11T17:46:00.686Z,15.20
2023-05-11T17:48:27.457Z,16.20
2023-05-11T17:50:54.235Z,15.60
2023-05-11T17:53:20.935Z,13.70
2023-05-11T17:55:47.687Z,14.70
2023-05-11T17:58:14.531Z,14.30
2023-05-11T18:00:41.486Z,15.30
2023-05-11T18:03:08.388Z,14.30
2023-05-11T18:05:47.425Z,14.30
2023-05-11T18:08:14.897Z,12.80
2023-05-11T18:10:41.859Z,15.10
2023-05-11T18:13:08.973Z,15.10
2023-05-11T18:15:35.758Z,14.80
2023-05-11T18:18:02.783Z,14.40
2023-05-11T18:20:29.598Z,12.60
2023-05-11T18:22:56.925Z,13.40
2023-05-11T18:25:24.015Z,12.50
2023-05-11T18:27:50.617Z,12.40
2023-05-11T18:30:17.782Z,15.10
2023-05-11T18:32:45.258Z,12.40
2023-05-11T18:35:12.009Z,15.20
2023-05-11T18:37:38.763Z,14.00
2023-05-11T18:40:07.393Z,14.30
2023-05-11T18:42:34.528Z,12.20
2023-05-11T18:45:01.659Z,12.10
2023-05-11T18:47:28.518Z,12.10
2023-05-11T18:49:55.278Z,12.30
2023-05-11T18:52:22.045Z,13.70
2023-05-11T18:54:48.807Z,12.30
2023-05-11T18:57:19.061Z,14.90
2023-05-11T18:59:45.707Z,11.80
2023-05-11T19:02:12.613Z,14.80
2023-05-11T19:04:39.384Z,13.10
2023-05-11T19:07:06.399Z,13.30
2023-05-11T19:09:34.218Z,12.90
2023-05-11T19:12:00.850Z,11.60
2023-05-11T19:14:27.589Z,11.60
2023-05-11T19:16:54.355Z,12.30
2023-05-11T19:19:21.127Z,12.00
2023-05-11T19:21:48.915Z,12.60
2023-05-11T19:24:15.981Z,12.50
2023-05-11T19:26:47.402Z,11.60
2023-05-11T19:29:22.851Z,11.30
2023-05-11T19:31:49.827Z,11.60
2023-05-11T19:34:16.808Z,12.60
2023-05-11T19:36:43.563Z,11.20
2023-05-11T19:39:10.333Z,13.60
2023-05-11T19:41:37.012Z,13.40
2023-05-11T19:44:04.051Z,12.50
2023-05-11T19:46:30.950Z,11.00
2023-05-11T19:48:57.765Z,13.30
2023-05-11T19:51:24.545Z,11.00
2023-05-11T19:53:51.240Z,11.00
2023-05-11T19:56:17.943Z,13.50
2023-05-11T19:58:44.584Z,10.80
2023-05-11T20:01:11.430Z,10.90
2023-05-11T20:03:38.474Z,13.00
2023-05-11T20:06:05.721Z,10.80
2023-05-11T20:08:32.685Z,12.50
2023-05-11T20:10:59.650Z,12.20
2023-05-11T20:13:26.299Z,10.80
2023-05-11T20:15:53.064Z,10.80
2023-05-11T20:18:20.174Z,10.70
2023-05-11T20:20:47.668Z,10.60
2023-05-11T20:23:14.404Z,11.40
2023-05-11T20:25:43.902Z,13.00
2023-05-11T20:28:11.494Z,10.50
2023-05-11T20:30:38.301Z,10.50
2023-05-11T20:35:34.977Z,10.40
2023-05-11T20:38:02.241Z,10.50
2023-05-11T20:40:29.231Z,10.50
2023-05-11T20:42:55.957Z,10.60
2023-05-11T20:45:22.617Z,10.50
2023-05-11T20:47:49.587Z,13.20
2023-05-11T20:50:16.430Z,11.70
2023-05-11T20:52:43.502Z,10.60
2023-05-11T20:55:10.275Z,10.60
2023-05-11T20:57:37.365Z,10.50
2023-05-11T21:00:08.169Z,10.40
2023-05-11T21:02:35.111Z,10.20
2023-05-11T21:05:02.641Z,10.20
2023-05-11T21:07:29.949Z,10.10
2023-05-11T21:09:56.620Z,11.50
2023-05-11T21:12:23.496Z,10.10
2023-05-11T21:14:50.461Z,12.10
2023-05-11T21:17:17.123Z,10.10
2023-05-11T21:19:43.824Z,10.00
2023-05-11T21:22:10.565Z,10.00
2023-05-11T21:24:37.834Z,11.10
2023-05-11T21:27:04.979Z,10.00
2023-05-11T21:29:31.625Z,9.90
2023-05-11T21:31:58.388Z,10.90
2023-05-11T21:34:25.154Z,11.50
2023-05-11T21:36:51.867Z,13.00
2023-05-11T21:39:19.026Z,9.90
2023-05-11T21:41:46.175Z,9.80
2023-05-11T21:44:12.937Z,9.90
2023-05-11T21:46:39.620Z,9.80
2023-05-11T21:49:06.273Z,12.60
2023-05-11T21:51:33.546Z,9.80
2023-05-11T21:54:00.234Z,9.80
2023-05-11T21:56:26.936Z,9.80
2023-05-11T21:58:53.637Z,9.80
2023-05-11T22:01:20.542Z,12.50
2023-05-11T22:03:47.412Z,9.90
2023-05-11T22:06:14.543Z,10.00
2023-05-11T22:08:41.276Z,13.00
2023-05-11T22:11:07.982Z,12.20
2023-05-11T22:13:35.120Z,10.00
2023-05-11T22:16:02.572Z,10.00
2023-05-11T22:18:29.590Z,10.00
2023-05-11T22:20:56.442Z,10.10
2023-05-11T22:23:23.205Z,10.10
2023-05-11T22:25:49.932Z,12.70
2023-05-11T22:28:16.610Z,10.10
2023-05-11T22:30:43.256Z,12.00
2023-05-11T22:33:09.857Z,10.10
2023-05-11T22:35:36.818Z,12.00
2023-05-11T22:38:04.376Z,12.00
2023-05-11T22:40:31.085Z,10.00
2023-05-11T22:42:58.059Z,10.10
2023-05-11T22:45:24.695Z,10.10
2023-05-11T22:47:51.667Z,10.10
2023-05-11T22:50:18.750Z,10.10
2023-05-11T22:52:45.719Z,12.00
2023-05-11T22:55:12.696Z,10.10
2023-05-11T22:57:39.541Z,13.20
2023-05-11T23:00:06.838Z,10.00
2023-05-11T23:02:35.697Z,10.10
2023-05-11T23:05:02.894Z,10.10
2023-05-11T23:07:29.582Z,10.20
2023-05-11T23:09:56.307Z,10.90
2023-05-11T23:12:24.414Z,13.40
2023-05-11T23:14:51.181Z,10.30
2023-05-11T23:17:17.891Z,12.70
2023-05-11T23:19:44.793Z,12.90
2023-05-11T23:22:11.483Z,10.30
2023-05-11T23:24:38.117Z,10.30
2023-05-11T23:27:04.870Z,10.30
2023-05-11T23:29:31.565Z,10.30
2023-05-11T23:31:58.518Z,10.40
2023-05-11T23:34:25.133Z,10.40
2023-05-11T23:36:51.858Z,10.30
2023-05-11T23:39:18.625Z,10.30
2023-05-11T23:41:45.426Z,13.00
2023-05-11T23:44:12.366Z,10.20
2023-05-11T23:46:39.314Z,10.20
2023-05-11T23:49:06.248Z,10.20
2023-05-11T23:51:33.445Z,10.20
2023-05-11T23:54:00.154Z,10.20
2023-05-11T23:56:26.854Z,10.20
2023-05-11T23:58:53.621Z,10.30
